sensor_id;sensor_type;location;lat;lon;timestamp;P1;durP1;ratioP1;P2;durP2;ratioP2
15273;SDS011;7738;49.532;11.156;2023-05-10T00:00:37;2.50;;;2.30;;
15273;SDS011;7738;49.532;11.156;2023-05-10T00:03:07;4.28;;;2.00;;
15273;SDS011;7738;49.532;11.156;2023-05-10T00:05:38;2.67;;;1.98;;
15273;SDS011;7738;49.532;11.156;2023-05-10T00:08:08;3.42;;;2.10;;
15273;SDS011;7738;49.532;11.156;2023-05-10T00:10:38;3.08;;;2.13;;
15273;SDS011;7738;49.532;11.156;2023-05-10T00:13:08;5.55;;;2.25;;
15273;SDS011;7738;49.532;11.156;2023-05-10T00:15:41;3.42;;;2.17;;
15273;SDS011;7738;49.532;11.156;2023-05-10T00:18:11;4.53;;;2.55;;
15273;SDS011;7738;49.532;11.156;2023-05-10T00:20:42;3.08;;;2.67;;
15273;SDS011;7738;49.532;11.156;2023-05-10T00:23:12;2.80;;;2.47;;
15273;SDS011;7738;49.532;11.156;2023-05-10T00:25:42;3.20;;;2.90;;
15273;SDS011;7738;49.532;11.156;2023-05-10T00:28:13;3.38;;;2.55;;
15273;SDS011;7738;49.532;11.156;2023-05-10T00:30:46;3.70;;;2.42;;
15273;SDS011;7738;49.532;11.156;2023-05-10T00:33:16;8.65;;;3.13;;
15273;SDS011;7738;49.532;11.156;2023-05-10T00:35:46;5.75;;;3.20;;
15273;SDS011;7738;49.532;11.156;2023-05-10T00:38:17;7.00;;;3.20;;
15273;SDS011;7738;49.532;11.156;2023-05-10T00:40:47;5.28;;;3.05;;
15273;SDS011;7738;49.532;11.156;2023-05-10T00:43:25;4.38;;;3.08;;
15273;SDS011;7738;49.532;11.156;2023-05-10T00:45:57;3.90;;;2.97;;
15273;SDS011;7738;49.532;11.156;2023-05-10T00:48:28;3.27;;;2.97;;
15273;SDS011;7738;49.532;11.156;2023-05-10T00:50:58;3.97;;;3.28;;
15273;SDS011;7738;49.532;11.156;2023-05-10T00:53:30;4.50;;;3.15;;
15273;SDS011;7738;49.532;11.156;2023-05-10T00:56:01;4.78;;;3.17;;
15273;SDS011;7738;49.532;11.156;2023-05-10T00:58:32;3.78;;;3.40;;
15273;SDS011;7738;49.532;11.156;2023-05-10T01:01:05;6.57;;;3.58;;
15273;SDS011;7738;49.532;11.156;2023-05-10T01:03:36;5.25;;;3.78;;
15273;SDS011;7738;49.532;11.156;2023-05-10T01:06:08;5.25;;;4.03;;
15273;SDS011;7738;49.532;11.156;2023-05-10T01:08:39;5.15;;;3.88;;
15273;SDS011;7738;49.532;11.156;2023-05-10T01:11:10;6.25;;;4.97;;
15273;SDS011;7738;49.532;11.156;2023-05-10T01:13:42;6.03;;;5.43;;
15273;SDS011;7738;49.532;11.156;2023-05-10T01:16:16;5.28;;;4.75;;
15273;SDS011;7738;49.532;11.156;2023-05-10T01:18:47;6.75;;;5.00;;
15273;SDS011;7738;49.532;11.156;2023-05-10T01:21:22;7.35;;;4.97;;
15273;SDS011;7738;49.532;11.156;2023-05-10T01:26:55;8.65;;;5.20;;
15273;SDS011;7738;49.532;11.156;2023-05-10T01:29:52;8.50;;;5.45;;
15273;SDS011;7738;49.532;11.156;2023-05-10T01:32:51;7.57;;;5.93;;
15273;SDS011;7738;49.532;11.156;2023-05-10T01:35:29;7.88;;;5.53;;
15273;SDS011;7738;49.532;11.156;2023-05-10T01:40:37;6.93;;;5.28;;
15273;SDS011;7738;49.532;11.156;2023-05-10T01:43:14;7.45;;;5.30;;
15273;SDS011;7738;49.532;11.156;2023-05-10T01:45:54;6.47;;;5.03;;
15273;SDS011;7738;49.532;11.156;2023-05-10T01:48:29;6.93;;;5.40;;
15273;SDS011;7738;49.532;11.156;2023-05-10T01:51:00;7.85;;;5.22;;
15273;SDS011;7738;49.532;11.156;2023-05-10T01:53:31;7.82;;;6.35;;
15273;SDS011;7738;49.532;11.156;2023-05-10T01:56:02;6.47;;;5.15;;
15273;SDS011;7738;49.532;11.156;2023-05-10T01:58:33;7.28;;;5.63;;
15273;SDS011;7738;49.532;11.156;2023-05-10T02:01:05;6.28;;;5.13;;
15273;SDS011;7738;49.532;11.156;2023-05-10T02:03:39;8.68;;;5.40;;
15273;SDS011;7738;49.532;11.156;2023-05-10T02:06:12;5.95;;;5.35;;
15273;SDS011;7738;49.532;11.156;2023-05-10T02:08:44;7.40;;;5.40;;
15273;SDS011;7738;49.532;11.156;2023-05-10T02:11:15;8.68;;;6.03;;
15273;SDS011;7738;49.532;11.156;2023-05-10T02:13:48;7.78;;;5.90;;
15273;SDS011;7738;49.532;11.156;2023-05-10T02:16:24;11.48;;;6.78;;
15273;SDS011;7738;49.532;11.156;2023-05-10T02:19:01;8.80;;;6.53;;
15273;SDS011;7738;49.532;11.156;2023-05-10T02:21:32;6.80;;;6.03;;
15273;SDS011;7738;49.532;11.156;2023-05-10T02:24:04;8.32;;;6.22;;
15273;SDS011;7738;49.532;11.156;2023-05-10T02:26:35;12.00;;;6.47;;
15273;SDS011;7738;49.532;11.156;2023-05-10T02:29:07;8.77;;;5.82;;
15273;SDS011;7738;49.532;11.156;2023-05-10T02:31:38;12.73;;;6.47;;
15273;SDS011;7738;49.532;11.156;2023-05-10T02:34:12;7.60;;;6.35;;
15273;SDS011;7738;49.532;11.156;2023-05-10T02:36:44;7.75;;;6.30;;
15273;SDS011;7738;49.532;11.156;2023-05-10T02:39:15;9.30;;;5.97;;
15273;SDS011;7738;49.532;11.156;2023-05-10T02:41:46;7.55;;;6.50;;
15273;SDS011;7738;49.532;11.156;2023-05-10T02:44:17;7.78;;;6.15;;
15273;SDS011;7738;49.532;11.156;2023-05-10T02:46:48;8.57;;;5.85;;
15273;SDS011;7738;49.532;11.156;2023-05-10T02:49:21;7.50;;;6.00;;
15273;SDS011;7738;49.532;11.156;2023-05-10T02:51:54;9.88;;;6.35;;
15273;SDS011;7738;49.532;11.156;2023-05-10T02:54:27;7.85;;;6.43;;
15273;SDS011;7738;49.532;11.156;2023-05-10T02:56:58;8.27;;;6.40;;
15273;SDS011;7738;49.532;11.156;2023-05-10T02:59:29;6.93;;;5.97;;
15273;SDS011;7738;49.532;11.156;2023-05-10T03:02:00;8.05;;;5.88;;
15273;SDS011;7738;49.532;11.156;2023-05-10T03:04:34;10.95;;;6.53;;
15273;SDS011;7738;49.532;11.156;2023-05-10T03:07:04;7.65;;;6.07;;
15273;SDS011;7738;49.532;11.156;2023-05-10T03:09:34;7.80;;;5.90;;
15273;SDS011;7738;49.532;11.156;2023-05-10T03:12:06;9.65;;;6.80;;
15273;SDS011;7738;49.532;11.156;2023-05-10T03:14:42;8.63;;;5.85;;
15273;SDS011;7738;49.532;11.156;2023-05-10T03:17:19;9.73;;;6.93;;
15273;SDS011;7738;49.532;11.156;2023-05-10T03:19:59;10.38;;;6.70;;
15273;SDS011;7738;49.532;11.156;2023-05-10T03:22:34;9.63;;;6.30;;
15273;SDS011;7738;49.532;11.156;2023-05-10T03:27:40;8.85;;;5.35;;
15273;SDS011;7738;49.532;11.156;2023-05-10T03:30:12;7.68;;;5.22;;
15273;SDS011;7738;49.532;11.156;2023-05-10T03:32:43;5.88;;;4.43;;
15273;SDS011;7738;49.532;11.156;2023-05-10T03:35:18;6.10;;;4.55;;
15273;SDS011;7738;49.532;11.156;2023-05-10T03:37:48;4.80;;;3.45;;
15273;SDS011;7738;49.532;11.156;2023-05-10T03:40:19;5.05;;;2.60;;
15273;SDS011;7738;49.532;11.156;2023-05-10T03:42:50;3.55;;;2.42;;
15273;SDS011;7738;49.532;11.156;2023-05-10T03:45:20;3.95;;;2.25;;
15273;SDS011;7738;49.532;11.156;2023-05-10T03:47:51;2.58;;;2.03;;
15273;SDS011;7738;49.532;11.156;2023-05-10T03:50:24;2.80;;;2.22;;
15273;SDS011;7738;49.532;11.156;2023-05-10T03:52:55;4.15;;;2.28;;
15273;SDS011;7738;49.532;11.156;2023-05-10T03:55:27;3.08;;;1.88;;
15273;SDS011;7738;49.532;11.156;2023-05-10T03:58:01;3.85;;;2.75;;
15273;SDS011;7738;49.532;11.156;2023-05-10T04:00:32;2.58;;;1.83;;
15273;SDS011;7738;49.532;11.156;2023-05-10T04:03:03;4.82;;;2.15;;
15273;SDS011;7738;49.532;11.156;2023-05-10T04:05:36;3.25;;;1.73;;
15273;SDS011;7738;49.532;11.156;2023-05-10T04:08:06;3.05;;;1.30;;
15273;SDS011;7738;49.532;11.156;2023-05-10T04:10:37;2.53;;;1.27;;
15273;SDS011;7738;49.532;11.156;2023-05-10T04:13:07;2.95;;;0.98;;
15273;SDS011;7738;49.532;11.156;2023-05-10T04:15:37;1.42;;;0.60;;
15273;SDS011;7738;49.532;11.156;2023-05-10T04:18:08;1.20;;;0.77;;
15273;SDS011;7738;49.532;11.156;2023-05-10T04:20:41;0.90;;;0.50;;
15273;SDS011;7738;49.532;11.156;2023-05-10T04:23:11;1.88;;;0.63;;
15273;SDS011;7738;49.532;11.156;2023-05-10T04:25:43;1.05;;;0.52;;
15273;SDS011;7738;49.532;11.156;2023-05-10T04:28:13;1.15;;;0.60;;
15273;SDS011;7738;49.532;11.156;2023-05-10T04:30:43;0.47;;;0.30;;
15273;SDS011;7738;49.532;11.156;2023-05-10T04:33:14;0.70;;;0.40;;
15273;SDS011;7738;49.532;11.156;2023-05-10T04:35:47;2.83;;;0.52;;
15273;SDS011;7738;49.532;11.156;2023-05-10T04:38:17;1.02;;;0.35;;
15273;SDS011;7738;49.532;11.156;2023-05-10T04:40:47;2.50;;;0.20;;
15273;SDS011;7738;49.532;11.156;2023-05-10T04:43:17;0.55;;;0.40;;
15273;SDS011;7738;49.532;11.156;2023-05-10T04:45:47;0.90;;;0.30;;
15273;SDS011;7738;49.532;11.156;2023-05-10T04:48:17;0.63;;;0.28;;
15273;SDS011;7738;49.532;11.156;2023-05-10T04:50:50;0.40;;;0.20;;
15273;SDS011;7738;49.532;11.156;2023-05-10T04:53:21;1.55;;;0.50;;
15273;SDS011;7738;49.532;11.156;2023-05-10T04:55:51;2.70;;;0.35;;
15273;SDS011;7738;49.532;11.156;2023-05-10T04:58:21;0.90;;;0.47;;
15273;SDS011;7738;49.532;11.156;2023-05-10T05:00:51;0.60;;;0.22;;
15273;SDS011;7738;49.532;11.156;2023-05-10T05:03:21;0.52;;;0.30;;
15273;SDS011;7738;49.532;11.156;2023-05-10T05:05:54;0.47;;;0.20;;
15273;SDS011;7738;49.532;11.156;2023-05-10T05:08:25;0.60;;;0.20;;
15273;SDS011;7738;49.532;11.156;2023-05-10T05:10:55;1.00;;;0.30;;
15273;SDS011;7738;49.532;11.156;2023-05-10T05:13:25;2.28;;;0.70;;
15273;SDS011;7738;49.532;11.156;2023-05-10T05:15:56;0.32;;;0.17;;
15273;SDS011;7738;49.532;11.156;2023-05-10T05:18:26;0.63;;;0.40;;
15273;SDS011;7738;49.532;11.156;2023-05-10T05:20:59;4.75;;;0.90;;
15273;SDS011;7738;49.532;11.156;2023-05-10T05:23:30;0.70;;;0.32;;
15273;SDS011;7738;49.532;11.156;2023-05-10T05:26:00;0.70;;;0.40;;
15273;SDS011;7738;49.532;11.156;2023-05-10T05:28:30;1.05;;;0.73;;
15273;SDS011;7738;49.532;11.156;2023-05-10T05:31:03;0.80;;;0.30;;
15273;SDS011;7738;49.532;11.156;2023-05-10T05:33:34;1.20;;;0.60;;
15273;SDS011;7738;49.532;11.156;2023-05-10T05:36:07;1.08;;;0.30;;
15273;SDS011;7738;49.532;11.156;2023-05-10T05:38:38;1.30;;;0.40;;
15273;SDS011;7738;49.532;11.156;2023-05-10T05:41:08;1.02;;;0.50;;
15273;SDS011;7738;49.532;11.156;2023-05-10T05:43:38;2.05;;;0.40;;
15273;SDS011;7738;49.532;11.156;2023-05-10T05:46:08;0.68;;;0.60;;
15273;SDS011;7738;49.532;11.156;2023-05-10T05:48:38;0.50;;;0.40;;
15273;SDS011;7738;49.532;11.156;2023-05-10T05:51:11;2.03;;;0.40;;
15273;SDS011;7738;49.532;11.156;2023-05-10T05:53:41;0.60;;;0.30;;
15273;SDS011;7738;49.532;11.156;2023-05-10T05:56:11;1.08;;;0.43;;
15273;SDS011;7738;49.532;11.156;2023-05-10T05:58:42;2.75;;;0.35;;
15273;SDS011;7738;49.532;11.156;2023-05-10T06:01:12;0.88;;;0.47;;
15273;SDS011;7738;49.532;11.156;2023-05-10T06:03:42;0.77;;;0.47;;
15273;SDS011;7738;49.532;11.156;2023-05-10T06:06:15;1.15;;;0.50;;
15273;SDS011;7738;49.532;11.156;2023-05-10T06:08:45;1.55;;;0.57;;
15273;SDS011;7738;49.532;11.156;2023-05-10T06:11:15;0.90;;;0.60;;
15273;SDS011;7738;49.532;11.156;2023-05-10T06:13:47;2.03;;;0.73;;
15273;SDS011;7738;49.532;11.156;2023-05-10T06:16:18;0.82;;;0.50;;
15273;SDS011;7738;49.532;11.156;2023-05-10T06:18:48;1.73;;;0.70;;
15273;SDS011;7738;49.532;11.156;2023-05-10T06:21:20;1.52;;;0.40;;
15273;SDS011;7738;49.532;11.156;2023-05-10T06:23:51;0.63;;;0.30;;
15273;SDS011;7738;49.532;11.156;2023-05-10T06:26:21;1.10;;;0.77;;
15273;SDS011;7738;49.532;11.156;2023-05-10T06:28:51;1.17;;;1.02;;
15273;SDS011;7738;49.532;11.156;2023-05-10T06:31:22;1.90;;;0.70;;
15273;SDS011;7738;49.532;11.156;2023-05-10T06:33:52;1.63;;;0.80;;
15273;SDS011;7738;49.532;11.156;2023-05-10T06:36:25;0.95;;;0.65;;
15273;SDS011;7738;49.532;11.156;2023-05-10T06:38:55;1.20;;;0.90;;
15273;SDS011;7738;49.532;11.156;2023-05-10T06:41:25;0.60;;;0.47;;
15273;SDS011;7738;49.532;11.156;2023-05-10T06:43:55;3.85;;;0.90;;
15273;SDS011;7738;49.532;11.156;2023-05-10T06:46:25;0.45;;;0.25;;
15273;SDS011;7738;49.532;11.156;2023-05-10T06:48:55;1.45;;;0.90;;
15273;SDS011;7738;49.532;11.156;2023-05-10T06:51:28;1.25;;;0.70;;
15273;SDS011;7738;49.532;11.156;2023-05-10T06:53:59;2.08;;;0.70;;
15273;SDS011;7738;49.532;11.156;2023-05-10T06:56:29;1.10;;;0.60;;
15273;SDS011;7738;49.532;11.156;2023-05-10T06:59:00;1.05;;;0.57;;
15273;SDS011;7738;49.532;11.156;2023-05-10T07:01:30;0.95;;;0.55;;
15273;SDS011;7738;49.532;11.156;2023-05-10T07:04:00;2.05;;;0.70;;
15273;SDS011;7738;49.532;11.156;2023-05-10T07:06:33;0.80;;;0.60;;
15273;SDS011;7738;49.532;11.156;2023-05-10T07:09:03;0.63;;;0.60;;
15273;SDS011;7738;49.532;11.156;2023-05-10T07:11:34;1.05;;;0.60;;
15273;SDS011;7738;49.532;11.156;2023-05-10T07:14:04;1.20;;;0.75;;
15273;SDS011;7738;49.532;11.156;2023-05-10T07:16:34;0.90;;;0.60;;
15273;SDS011;7738;49.532;11.156;2023-05-10T07:19:05;1.50;;;0.65;;
15273;SDS011;7738;49.532;11.156;2023-05-10T07:21:38;0.75;;;0.40;;
15273;SDS011;7738;49.532;11.156;2023-05-10T07:24:09;1.13;;;0.70;;
15273;SDS011;7738;49.532;11.156;2023-05-10T07:26:40;0.70;;;0.40;;
15273;SDS011;7738;49.532;11.156;2023-05-10T07:29:10;0.60;;;0.60;;
15273;SDS011;7738;49.532;11.156;2023-05-10T07:31:41;0.82;;;0.40;;
15273;SDS011;7738;49.532;11.156;2023-05-10T07:34:11;0.50;;;0.30;;
15273;SDS011;7738;49.532;11.156;2023-05-10T07:36:44;0.70;;;0.40;;
15273;SDS011;7738;49.532;11.156;2023-05-10T07:39:14;0.80;;;0.20;;
15273;SDS011;7738;49.532;11.156;2023-05-10T07:41:52;0.40;;;0.20;;
15273;SDS011;7738;49.532;11.156;2023-05-10T07:44:23;0.22;;;0.17;;
15273;SDS011;7738;49.532;11.156;2023-05-10T07:46:53;0.57;;;0.10;;
15273;SDS011;7738;49.532;11.156;2023-05-10T07:49:25;0.55;;;0.10;;
15273;SDS011;7738;49.532;11.156;2023-05-10T07:51:57;4.32;;;0.32;;
15273;SDS011;7738;49.532;11.156;2023-05-10T07:54:29;0.73;;;0.38;;
15273;SDS011;7738;49.532;11.156;2023-05-10T07:57:00;0.70;;;0.38;;
15273;SDS011;7738;49.532;11.156;2023-05-10T07:59:30;0.85;;;0.10;;
15273;SDS011;7738;49.532;11.156;2023-05-10T08:02:01;2.33;;;0.57;;
15273;SDS011;7738;49.532;11.156;2023-05-10T08:04:31;0.20;;;0.10;;
15273;SDS011;7738;49.532;11.156;2023-05-10T08:07:04;2.20;;;0.20;;
15273;SDS011;7738;49.532;11.156;2023-05-10T08:09:35;0.50;;;0.30;;
15273;SDS011;7738;49.532;11.156;2023-05-10T08:12:05;0.13;;;0.05;;
15273;SDS011;7738;49.532;11.156;2023-05-10T08:14:36;2.05;;;0.20;;
15273;SDS011;7738;49.532;11.156;2023-05-10T08:17:06;0.20;;;0.05;;
15273;SDS011;7738;49.532;11.156;2023-05-10T08:19:36;0.45;;;0.10;;
15273;SDS011;7738;49.532;11.156;2023-05-10T08:22:09;0.80;;;0.30;;
15273;SDS011;7738;49.532;11.156;2023-05-10T08:24:39;0.30;;;0.17;;
15273;SDS011;7738;49.532;11.156;2023-05-10T08:27:10;0.50;;;0.10;;
15273;SDS011;7738;49.532;11.156;2023-05-10T08:29:40;0.60;;;0.20;;
15273;SDS011;7738;49.532;11.156;2023-05-10T08:32:16;1.00;;;0.70;;
15273;SDS011;7738;49.532;11.156;2023-05-10T08:34:46;0.28;;;0.10;;
15273;SDS011;7738;49.532;11.156;2023-05-10T08:37:19;1.00;;;0.30;;
15273;SDS011;7738;49.532;11.156;2023-05-10T08:39:49;2.00;;;0.20;;
15273;SDS011;7738;49.532;11.156;2023-05-10T08:42:19;0.50;;;0.40;;
15273;SDS011;7738;49.532;11.156;2023-05-10T08:44:55;0.70;;;0.20;;
15273;SDS011;7738;49.532;11.156;2023-05-10T08:47:27;0.98;;;0.73;;
15273;SDS011;7738;49.532;11.156;2023-05-10T08:49:57;1.20;;;0.63;;
15273;SDS011;7738;49.532;11.156;2023-05-10T08:52:32;2.10;;;0.50;;
15273;SDS011;7738;49.532;11.156;2023-05-10T08:55:05;0.55;;;0.30;;
15273;SDS011;7738;49.532;11.156;2023-05-10T08:57:36;1.13;;;0.40;;
15273;SDS011;7738;49.532;11.156;2023-05-10T09:00:06;0.40;;;0.30;;
15273;SDS011;7738;49.532;11.156;2023-05-10T09:02:37;0.80;;;0.50;;
15273;SDS011;7738;49.532;11.156;2023-05-10T09:05:08;2.55;;;0.55;;
15273;SDS011;7738;49.532;11.156;2023-05-10T09:07:41;1.15;;;0.50;;
15273;SDS011;7738;49.532;11.156;2023-05-10T09:10:12;0.50;;;0.35;;
15273;SDS011;7738;49.532;11.156;2023-05-10T09:12:44;1.60;;;0.30;;
15273;SDS011;7738;49.532;11.156;2023-05-10T09:15:14;0.90;;;0.68;;
15273;SDS011;7738;49.532;11.156;2023-05-10T09:17:46;3.90;;;0.40;;
15273;SDS011;7738;49.532;11.156;2023-05-10T09:20:16;0.85;;;0.60;;
15273;SDS011;7738;49.532;11.156;2023-05-10T09:22:49;2.03;;;0.50;;
15273;SDS011;7738;49.532;11.156;2023-05-10T09:25:20;1.92;;;0.70;;
15273;SDS011;7738;49.532;11.156;2023-05-10T09:27:52;1.05;;;0.93;;
15273;SDS011;7738;49.532;11.156;2023-05-10T09:30:26;2.10;;;0.70;;
15273;SDS011;7738;49.532;11.156;2023-05-10T09:35:27;0.77;;;0.43;;
15273;SDS011;7738;49.532;11.156;2023-05-10T09:38:02;1.27;;;0.50;;
15273;SDS011;7738;49.532;11.156;2023-05-10T09:40:32;0.60;;;0.30;;
15273;SDS011;7738;49.532;11.156;2023-05-10T09:43:03;0.70;;;0.32;;
15273;SDS011;7738;49.532;11.156;2023-05-10T09:45:36;1.10;;;0.40;;
15273;SDS011;7738;49.532;11.156;2023-05-10T09:48:06;1.02;;;0.45;;
15273;SDS011;7738;49.532;11.156;2023-05-10T09:50:36;0.60;;;0.40;;
15273;SDS011;7738;49.532;11.156;2023-05-10T09:53:09;1.35;;;0.70;;
15273;SDS011;7738;49.532;11.156;2023-05-10T09:55:45;1.65;;;0.98;;
15273;SDS011;7738;49.532;11.156;2023-05-10T09:58:17;1.92;;;1.20;;
15273;SDS011;7738;49.532;11.156;2023-05-10T10:00:47;2.95;;;1.73;;
15273;SDS011;7738;49.532;11.156;2023-05-10T10:03:19;1.50;;;1.33;;
15273;SDS011;7738;49.532;11.156;2023-05-10T10:05:50;3.63;;;1.60;;
15273;SDS011;7738;49.532;11.156;2023-05-10T10:08:25;4.35;;;1.50;;
15273;SDS011;7738;49.532;11.156;2023-05-10T10:10:55;2.28;;;2.00;;
15273;SDS011;7738;49.532;11.156;2023-05-10T10:13:26;3.92;;;1.60;;
15273;SDS011;7738;49.532;11.156;2023-05-10T10:15:56;3.22;;;2.03;;
15273;SDS011;7738;49.532;11.156;2023-05-10T10:18:27;5.03;;;1.60;;
15273;SDS011;7738;49.532;11.156;2023-05-10T10:20:57;2.03;;;1.27;;
15273;SDS011;7738;49.532;11.156;2023-05-10T10:23:31;2.45;;;1.42;;
15273;SDS011;7738;49.532;11.156;2023-05-10T10:26:01;3.97;;;1.45;;
15273;SDS011;7738;49.532;11.156;2023-05-10T10:28:34;1.90;;;1.27;;
15273;SDS011;7738;49.532;11.156;2023-05-10T10:31:12;2.95;;;1.73;;
15273;SDS011;7738;49.532;11.156;2023-05-10T10:33:51;2.20;;;1.23;;
15273;SDS011;7738;49.532;11.156;2023-05-10T10:36:29;1.17;;;1.05;;
15273;SDS011;7738;49.532;11.156;2023-05-10T10:39:07;1.88;;;1.15;;
15273;SDS011;7738;49.532;11.156;2023-05-10T10:41:39;5.22;;;1.08;;
15273;SDS011;7738;49.532;11.156;2023-05-10T10:47:21;4.63;;;1.10;;
15273;SDS011;7738;49.532;11.156;2023-05-10T10:50:02;1.27;;;0.65;;
15273;SDS011;7738;49.532;11.156;2023-05-10T10:52:34;2.45;;;0.50;;
15273;SDS011;7738;49.532;11.156;2023-05-10T10:55:08;1.20;;;0.50;;
15273;SDS011;7738;49.532;11.156;2023-05-10T11:00:19;0.88;;;0.30;;
15273;SDS011;7738;49.532;11.156;2023-05-10T11:02:50;1.90;;;0.50;;
15273;SDS011;7738;49.532;11.156;2023-05-10T11:08:17;0.75;;;0.20;;
15273;SDS011;7738;49.532;11.156;2023-05-10T11:10:52;1.33;;;0.25;;
15273;SDS011;7738;49.532;11.156;2023-05-10T11:13:28;1.63;;;0.30;;
15273;SDS011;7738;49.532;11.156;2023-05-10T11:16:09;1.58;;;0.40;;
15273;SDS011;7738;49.532;11.156;2023-05-10T11:18:40;0.60;;;0.20;;
15273;SDS011;7738;49.532;11.156;2023-05-10T11:21:10;1.98;;;0.40;;
15273;SDS011;7738;49.532;11.156;2023-05-10T11:23:50;1.45;;;0.68;;
15273;SDS011;7738;49.532;11.156;2023-05-10T11:26:26;2.80;;;0.52;;
15273;SDS011;7738;49.532;11.156;2023-05-10T11:29:00;2.00;;;0.75;;
15273;SDS011;7738;49.532;11.156;2023-05-10T11:31:31;3.05;;;0.65;;
15273;SDS011;7738;49.532;11.156;2023-05-10T11:34:02;3.85;;;0.70;;
15273;SDS011;7738;49.532;11.156;2023-05-10T11:36:32;1.75;;;0.63;;
15273;SDS011;7738;49.532;11.156;2023-05-10T11:39:03;2.65;;;0.73;;
15273;SDS011;7738;49.532;11.156;2023-05-10T11:41:37;1.23;;;0.73;;
15273;SDS011;7738;49.532;11.156;2023-05-10T11:44:08;1.10;;;0.60;;
15273;SDS011;7738;49.532;11.156;2023-05-10T11:46:39;3.45;;;0.73;;
15273;SDS011;7738;49.532;11.156;2023-05-10T11:49:09;1.55;;;0.47;;
15273;SDS011;7738;49.532;11.156;2023-05-10T11:51:40;2.10;;;0.90;;
15273;SDS011;7738;49.532;11.156;2023-05-10T11:54:11;4.53;;;0.98;;
15273;SDS011;7738;49.532;11.156;2023-05-10T11:56:44;2.95;;;0.98;;
15273;SDS011;7738;49.532;11.156;2023-05-10T11:59:14;3.60;;;0.85;;
15273;SDS011;7738;49.532;11.156;2023-05-10T12:01:45;1.63;;;0.70;;
15273;SDS011;7738;49.532;11.156;2023-05-10T12:04:15;1.20;;;1.00;;
15273;SDS011;7738;49.532;11.156;2023-05-10T12:06:46;2.42;;;0.60;;
15273;SDS011;7738;49.532;11.156;2023-05-10T12:09:17;1.30;;;0.77;;
15273;SDS011;7738;49.532;11.156;2023-05-10T12:12:08;1.42;;;0.70;;
15273;SDS011;7738;49.532;11.156;2023-05-10T12:14:38;3.10;;;0.52;;
15273;SDS011;7738;49.532;11.156;2023-05-10T12:17:11;0.60;;;0.40;;
15273;SDS011;7738;49.532;11.156;2023-05-10T12:19:41;1.05;;;0.60;;
15273;SDS011;7738;49.532;11.156;2023-05-10T12:22:11;0.55;;;0.40;;
15273;SDS011;7738;49.532;11.156;2023-05-10T12:24:42;1.40;;;0.43;;
15273;SDS011;7738;49.532;11.156;2023-05-10T12:27:15;2.58;;;0.40;;
15273;SDS011;7738;49.532;11.156;2023-05-10T12:29:45;3.33;;;0.50;;
15273;SDS011;7738;49.532;11.156;2023-05-10T12:32:15;4.30;;;0.50;;
15273;SDS011;7738;49.532;11.156;2023-05-10T12:34:46;0.60;;;0.30;;
15273;SDS011;7738;49.532;11.156;2023-05-10T12:37:23;1.13;;;0.40;;
15273;SDS011;7738;49.532;11.156;2023-05-10T12:39:54;2.70;;;0.30;;
15273;SDS011;7738;49.532;11.156;2023-05-10T12:42:27;0.73;;;0.52;;
15273;SDS011;7738;49.532;11.156;2023-05-10T12:44:58;1.83;;;0.40;;
15273;SDS011;7738;49.532;11.156;2023-05-10T12:47:29;1.20;;;0.30;;
15273;SDS011;7738;49.532;11.156;2023-05-10T12:49:59;0.60;;;0.30;;
15273;SDS011;7738;49.532;11.156;2023-05-10T12:52:30;6.50;;;0.85;;
15273;SDS011;7738;49.532;11.156;2023-05-10T12:55:01;1.15;;;0.45;;
15273;SDS011;7738;49.532;11.156;2023-05-10T12:57:34;2.33;;;0.60;;
15273;SDS011;7738;49.532;11.156;2023-05-10T13:00:05;1.25;;;0.40;;
15273;SDS011;7738;49.532;11.156;2023-05-10T13:02:36;0.95;;;0.60;;
15273;SDS011;7738;49.532;11.156;2023-05-10T13:05:07;1.48;;;0.60;;
15273;SDS011;7738;49.532;11.156;2023-05-10T13:07:37;0.93;;;0.47;;
15273;SDS011;7738;49.532;11.156;2023-05-10T13:10:08;1.42;;;0.57;;
15273;SDS011;7738;49.532;11.156;2023-05-10T13:12:40;1.40;;;0.80;;
15273;SDS011;7738;49.532;11.156;2023-05-10T13:15:11;2.50;;;0.80;;
15273;SDS011;7738;49.532;11.156;2023-05-10T13:17:41;1.98;;;0.73;;
15273;SDS011;7738;49.532;11.156;2023-05-10T13:20:12;2.13;;;0.75;;
15273;SDS011;7738;49.532;11.156;2023-05-10T13:22:43;1.95;;;0.70;;
15273;SDS011;7738;49.532;11.156;2023-05-10T13:25:15;1.45;;;0.65;;
15273;SDS011;7738;49.532;11.156;2023-05-10T13:27:48;1.48;;;0.65;;
15273;SDS011;7738;49.532;11.156;2023-05-10T13:30:19;1.27;;;0.57;;
15273;SDS011;7738;49.532;11.156;2023-05-10T13:32:50;0.43;;;0.40;;
15273;SDS011;7738;49.532;11.156;2023-05-10T13:35:20;2.13;;;0.50;;
15273;SDS011;7738;49.532;11.156;2023-05-10T13:37:51;3.28;;;0.45;;
15273;SDS011;7738;49.532;11.156;2023-05-10T13:40:24;0.93;;;0.45;;
15273;SDS011;7738;49.532;11.156;2023-05-10T13:42:57;0.80;;;0.47;;
15273;SDS011;7738;49.532;11.156;2023-05-10T13:45:27;1.02;;;0.32;;
15273;SDS011;7738;49.532;11.156;2023-05-10T13:47:58;2.97;;;0.20;;
15273;SDS011;7738;49.532;11.156;2023-05-10T13:50:29;0.73;;;0.25;;
15273;SDS011;7738;49.532;11.156;2023-05-10T13:52:59;2.38;;;0.55;;
15273;SDS011;7738;49.532;11.156;2023-05-10T13:55:30;0.55;;;0.20;;
15273;SDS011;7738;49.532;11.156;2023-05-10T13:58:02;1.02;;;0.40;;
15273;SDS011;7738;49.532;11.156;2023-05-10T14:00:33;1.30;;;0.43;;
15273;SDS011;7738;49.532;11.156;2023-05-10T14:03:03;1.95;;;0.13;;
15273;SDS011;7738;49.532;11.156;2023-05-10T14:05:35;1.10;;;0.65;;
15273;SDS011;7738;49.532;11.156;2023-05-10T14:08:06;0.88;;;0.40;;
15273;SDS011;7738;49.532;11.156;2023-05-10T14:10:36;1.33;;;0.52;;
15273;SDS011;7738;49.532;11.156;2023-05-10T14:13:09;1.80;;;0.30;;
15273;SDS011;7738;49.532;11.156;2023-05-10T14:15:39;0.50;;;0.40;;
15273;SDS011;7738;49.532;11.156;2023-05-10T14:18:10;1.25;;;0.50;;
15273;SDS011;7738;49.532;11.156;2023-05-10T14:20:40;1.20;;;0.50;;
15273;SDS011;7738;49.532;11.156;2023-05-10T14:23:10;0.50;;;0.20;;
15273;SDS011;7738;49.532;11.156;2023-05-10T14:25:40;0.55;;;0.22;;
15273;SDS011;7738;49.532;11.156;2023-05-10T14:28:13;1.42;;;0.20;;
15273;SDS011;7738;49.532;11.156;2023-05-10T14:30:44;2.20;;;1.07;;
15273;SDS011;7738;49.532;11.156;2023-05-10T14:33:14;0.55;;;0.30;;
15273;SDS011;7738;49.532;11.156;2023-05-10T14:35:44;1.23;;;0.32;;
15273;SDS011;7738;49.532;11.156;2023-05-10T14:38:15;1.08;;;0.15;;
15273;SDS011;7738;49.532;11.156;2023-05-10T14:40:45;0.75;;;0.10;;
15273;SDS011;7738;49.532;11.156;2023-05-10T14:43:18;1.35;;;0.30;;
15273;SDS011;7738;49.532;11.156;2023-05-10T14:45:49;1.65;;;0.30;;
15273;SDS011;7738;49.532;11.156;2023-05-10T14:48:19;1.35;;;0.50;;
15273;SDS011;7738;49.532;11.156;2023-05-10T14:50:49;0.63;;;0.25;;
15273;SDS011;7738;49.532;11.156;2023-05-10T14:53:20;1.60;;;0.68;;
15273;SDS011;7738;49.532;11.156;2023-05-10T14:55:50;2.80;;;0.82;;
15273;SDS011;7738;49.532;11.156;2023-05-10T14:58:23;3.80;;;0.90;;
15273;SDS011;7738;49.532;11.156;2023-05-10T15:00:53;1.95;;;0.77;;
15273;SDS011;7738;49.532;11.156;2023-05-10T15:03:25;1.45;;;0.73;;
15273;SDS011;7738;49.532;11.156;2023-05-10T15:05:56;3.20;;;1.20;;
15273;SDS011;7738;49.532;11.156;2023-05-10T15:08:26;2.13;;;1.00;;
15273;SDS011;7738;49.532;11.156;2023-05-10T15:10:57;2.13;;;0.80;;
15273;SDS011;7738;49.532;11.156;2023-05-10T15:13:30;4.95;;;1.25;;
15273;SDS011;7738;49.532;11.156;2023-05-10T15:16:00;1.02;;;0.63;;
15273;SDS011;7738;49.532;11.156;2023-05-10T15:18:30;1.25;;;0.98;;
15273;SDS011;7738;49.532;11.156;2023-05-10T15:21:01;2.22;;;0.40;;
15273;SDS011;7738;49.532;11.156;2023-05-10T15:23:31;2.60;;;0.38;;
15273;SDS011;7738;49.532;11.156;2023-05-10T15:26:01;0.82;;;0.35;;
15273;SDS011;7738;49.532;11.156;2023-05-10T15:28:35;2.35;;;0.35;;
15273;SDS011;7738;49.532;11.156;2023-05-10T15:31:05;0.68;;;0.38;;
15273;SDS011;7738;49.532;11.156;2023-05-10T15:33:36;1.27;;;0.50;;